sensor_id;sensor_type;location;lat;lon;timestamp;temperature;humidity
21682;DHT22;11002;48.256;10.084;2023-02-28T00:01:11;-1.20;55.30
21682;DHT22;11002;48.256;10.084;2023-02-28T00:03:39;-0.90;55.90
21682;DHT22;11002;48.256;10.084;2023-02-28T00:06:08;-1.00;56.20
21682;DHT22;11002;48.256;10.084;2023-02-28T00:08:36;-1.10;56.10
21682;DHT22;11002;48.256;10.084;2023-02-28T00:11:05;-1.10;56.30
21682;DHT22;11002;48.256;10.084;2023-02-28T00:13:35;-1.20;56.10
21682;DHT22;11002;48.256;10.084;2023-02-28T00:16:05;-0.90;56.60
21682;DHT22;11002;48.256;10.084;2023-02-28T00:18:33;-1.10;56.40
21682;DHT22;11002;48.256;10.084;2023-02-28T00:21:00;-1.10;56.60
21682;DHT22;11002;48.256;10.084;2023-02-28T00:23:29;-1.20;57.20
21682;DHT22;11002;48.256;10.084;2023-02-28T00:25:57;-1.00;57.80
21682;DHT22;11002;48.256;10.084;2023-02-28T00:28:24;-1.10;57.10
21682;DHT22;11002;48.256;10.084;2023-02-28T00:30:52;-1.10;57.70
21682;DHT22;11002;48.256;10.084;2023-02-28T00:33:19;-1.30;57.10
21682;DHT22;11002;48.256;10.084;2023-02-28T00:35:47;-1.20;57.30
21682;DHT22;11002;48.256;10.084;2023-02-28T00:38:15;-1.10;57.50
21682;DHT22;11002;48.256;10.084;2023-02-28T00:40:44;-1.40;57.30
21682;DHT22;11002;48.256;10.084;2023-02-28T00:43:11;-1.10;57.60
21682;DHT22;11002;48.256;10.084;2023-02-28T00:45:39;-1.10;57.50
21682;DHT22;11002;48.256;10.084;2023-02-28T00:48:06;-1.20;57.10
21682;DHT22;11002;48.256;10.084;2023-02-28T00:50:33;-1.20;57.00
21682;DHT22;11002;48.256;10.084;2023-02-28T00:53:01;-1.20;57.00
21682;DHT22;11002;48.256;10.084;2023-02-28T00:55:28;-1.20;57.10
21682;DHT22;11002;48.256;10.084;2023-02-28T00:57:57;-0.90;56.80
21682;DHT22;11002;48.256;10.084;2023-02-28T01:00:24;-1.10;55.60
21682;DHT22;11002;48.256;10.084;2023-02-28T01:02:52;-0.90;56.00
21682;DHT22;11002;48.256;10.084;2023-02-28T01:05:19;-1.00;55.60
21682;DHT22;11002;48.256;10.084;2023-02-28T01:07:46;-1.20;55.00
21682;DHT22;11002;48.256;10.084;2023-02-28T01:10:14;-1.20;55.10
21682;DHT22;11002;48.256;10.084;2023-02-28T01:12:41;-0.80;55.30
21682;DHT22;11002;48.256;10.084;2023-02-28T01:15:11;-1.10;55.50
21682;DHT22;11002;48.256;10.084;2023-02-28T01:17:39;-1.10;54.70
21682;DHT22;11002;48.256;10.084;2023-02-28T01:20:07;-1.20;54.60
21682;DHT22;11002;48.256;10.084;2023-02-28T01:22:35;-1.10;54.80
21682;DHT22;11002;48.256;10.084;2023-02-28T01:25:03;-0.90;54.90
21682;DHT22;11002;48.256;10.084;2023-02-28T01:27:31;-1.20;54.60
21682;DHT22;11002;48.256;10.084;2023-02-28T01:29:58;-1.20;54.30
21682;DHT22;11002;48.256;10.084;2023-02-28T01:32:27;-1.10;54.50
21682;DHT22;11002;48.256;10.084;2023-02-28T01:34:55;-1.10;54.10
21682;DHT22;11002;48.256;10.084;2023-02-28T01:37:23;-1.10;54.60
21682;DHT22;11002;48.256;10.084;2023-02-28T01:39:50;-1.20;54.50
21682;DHT22;11002;48.256;10.084;2023-02-28T01:42:20;-1.20;53.80
21682;DHT22;11002;48.256;10.084;2023-02-28T01:45:00;-1.00;54.30
21682;DHT22;11002;48.256;10.084;2023-02-28T01:47:32;-1.10;53.80
21682;DHT22;11002;48.256;10.084;2023-02-28T01:50:02;-1.00;53.60
21682;DHT22;11002;48.256;10.084;2023-02-28T01:52:31;-0.90;53.70
21682;DHT22;11002;48.256;10.084;2023-02-28T01:55:01;-1.00;52.90
21682;DHT22;11002;48.256;10.084;2023-02-28T01:57:34;-1.00;53.60
21682;DHT22;11002;48.256;10.084;2023-02-28T02:00:07;-1.20;53.00
21682;DHT22;11002;48.256;10.084;2023-02-28T02:02:49;-1.10;53.60
21682;DHT22;11002;48.256;10.084;2023-02-28T02:05:19;-1.30;52.50
21682;DHT22;11002;48.256;10.084;2023-02-28T02:07:48;-1.10;53.40
21682;DHT22;11002;48.256;10.084;2023-02-28T02:10:19;-1.10;52.70
21682;DHT22;11002;48.256;10.084;2023-02-28T02:13:08;-1.10;53.30
21682;DHT22;11002;48.256;10.084;2023-02-28T02:15:42;-1.10;52.60
21682;DHT22;11002;48.256;10.084;2023-02-28T02:18:23;-1.10;52.60
21682;DHT22;11002;48.256;10.084;2023-02-28T02:31:30;-1.10;52.40
21682;DHT22;11002;48.256;10.084;2023-02-28T02:37:14;-1.00;51.70
21682;DHT22;11002;48.256;10.084;2023-02-28T02:39:48;-1.00;52.00
21682;DHT22;11002;48.256;10.084;2023-02-28T02:42:23;-1.10;52.40
21682;DHT22;11002;48.256;10.084;2023-02-28T02:44:56;-1.00;51.50
21682;DHT22;11002;48.256;10.084;2023-02-28T02:47:27;-1.20;51.30
21682;DHT22;11002;48.256;10.084;2023-02-28T02:49:59;-1.10;52.00
21682;DHT22;11002;48.256;10.084;2023-02-28T02:52:36;-1.00;51.90
21682;DHT22;11002;48.256;10.084;2023-02-28T02:55:07;-1.10;51.60
21682;DHT22;11002;48.256;10.084;2023-02-28T02:57:42;-1.30;51.60
21682;DHT22;11002;48.256;10.084;2023-02-28T03:00:14;-1.30;51.70
21682;DHT22;11002;48.256;10.084;2023-02-28T03:02:43;-1.10;51.60
21682;DHT22;11002;48.256;10.084;2023-02-28T03:05:16;-1.10;51.30
21682;DHT22;11002;48.256;10.084;2023-02-28T03:07:46;-1.00;50.90
21682;DHT22;11002;48.256;10.084;2023-02-28T03:10:30;-1.20;51.60
21682;DHT22;11002;48.256;10.084;2023-02-28T03:13:00;-0.90;50.70
21682;DHT22;11002;48.256;10.084;2023-02-28T03:15:34;-1.10;51.10
21682;DHT22;11002;48.256;10.084;2023-02-28T03:18:09;-1.00;50.60
21682;DHT22;11002;48.256;10.084;2023-02-28T03:20:41;-1.00;50.90
21682;DHT22;11002;48.256;10.084;2023-02-28T03:23:17;-1.10;50.70
21682;DHT22;11002;48.256;10.084;2023-02-28T03:25:54;-1.10;50.30
21682;DHT22;11002;48.256;10.084;2023-02-28T03:28:31;-1.30;50.30
21682;DHT22;11002;48.256;10.084;2023-02-28T03:31:06;-1.10;51.10
21682;DHT22;11002;48.256;10.084;2023-02-28T03:33:38;-0.90;50.90
21682;DHT22;11002;48.256;10.084;2023-02-28T03:36:12;-1.10;50.60
21682;DHT22;11002;48.256;10.084;2023-02-28T03:38:45;-1.20;51.40
21682;DHT22;11002;48.256;10.084;2023-02-28T03:41:14;-1.00;50.60
21682;DHT22;11002;48.256;10.084;2023-02-28T03:43:50;-0.90;50.50
21682;DHT22;11002;48.256;10.084;2023-02-28T03:46:22;-1.20;50.40
21682;DHT22;11002;48.256;10.084;2023-02-28T03:48:54;-1.20;50.20
21682;DHT22;11002;48.256;10.084;2023-02-28T03:51:23;-1.30;50.90
21682;DHT22;11002;48.256;10.084;2023-02-28T03:53:56;-1.40;50.80
21682;DHT22;11002;48.256;10.084;2023-02-28T03:56:28;-1.20;50.30
21682;DHT22;11002;48.256;10.084;2023-02-28T03:59:01;-1.20;50.80
21682;DHT22;11002;48.256;10.084;2023-02-28T04:01:33;-1.30;50.30
21682;DHT22;11002;48.256;10.084;2023-02-28T04:04:02;-1.10;51.10
21682;DHT22;11002;48.256;10.084;2023-02-28T04:06:32;-1.30;50.60
21682;DHT22;11002;48.256;10.084;2023-02-28T04:09:02;-1.10;50.70
21682;DHT22;11002;48.256;10.084;2023-02-28T04:11:33;-1.10;50.80
21682;DHT22;11002;48.256;10.084;2023-02-28T04:14:01;-1.10;51.00
21682;DHT22;11002;48.256;10.084;2023-02-28T04:16:29;-1.10;51.40
21682;DHT22;11002;48.256;10.084;2023-02-28T04:18:56;-1.20;51.20
21682;DHT22;11002;48.256;10.084;2023-02-28T04:21:28;-1.20;50.10
21682;DHT22;11002;48.256;10.084;2023-02-28T04:23:55;-1.10;50.70
21682;DHT22;11002;48.256;10.084;2023-02-28T04:26:29;-1.00;50.90
21682;DHT22;11002;48.256;10.084;2023-02-28T04:28:57;-1.00;50.70
21682;DHT22;11002;48.256;10.084;2023-02-28T04:31:25;-1.20;51.00
21682;DHT22;11002;48.256;10.084;2023-02-28T04:33:53;-1.30;51.10
21682;DHT22;11002;48.256;10.084;2023-02-28T04:36:20;-1.20;50.60
21682;DHT22;11002;48.256;10.084;2023-02-28T04:38:49;-1.10;51.00
21682;DHT22;11002;48.256;10.084;2023-02-28T04:41:17;-1.20;50.90
21682;DHT22;11002;48.256;10.084;2023-02-28T04:43:46;-1.00;51.20
21682;DHT22;11002;48.256;10.084;2023-02-28T04:46:13;-1.20;50.80
21682;DHT22;11002;48.256;10.084;2023-02-28T04:48:41;-1.10;50.60
21682;DHT22;11002;48.256;10.084;2023-02-28T04:51:11;-0.90;50.80
21682;DHT22;11002;48.256;10.084;2023-02-28T04:53:39;-1.30;50.80
21682;DHT22;11002;48.256;10.084;2023-02-28T04:56:08;-1.00;51.20
21682;DHT22;11002;48.256;10.084;2023-02-28T04:58:35;-1.30;51.10
21682;DHT22;11002;48.256;10.084;2023-02-28T05:01:14;-1.20;51.80
21682;DHT22;11002;48.256;10.084;2023-02-28T05:03:43;-0.90;51.80
21682;DHT22;11002;48.256;10.084;2023-02-28T05:06:12;-1.30;50.80
21682;DHT22;11002;48.256;10.084;2023-02-28T05:08:39;-1.40;51.10
21682;DHT22;11002;48.256;10.084;2023-02-28T05:11:12;-1.30;51.50
21682;DHT22;11002;48.256;10.084;2023-02-28T05:13:40;-1.20;51.60
21682;DHT22;11002;48.256;10.084;2023-02-28T05:16:09;-1.20;51.30
21682;DHT22;11002;48.256;10.084;2023-02-28T05:18:36;-1.10;51.50
21682;DHT22;11002;48.256;10.084;2023-02-28T05:21:04;-1.20;51.00
21682;DHT22;11002;48.256;10.084;2023-02-28T05:23:32;-1.30;51.70
21682;DHT22;11002;48.256;10.084;2023-02-28T05:25:59;-1.30;51.50
21682;DHT22;11002;48.256;10.084;2023-02-28T05:28:26;-1.30;51.70
21682;DHT22;11002;48.256;10.084;2023-02-28T05:30:54;-1.20;51.50
21682;DHT22;11002;48.256;10.084;2023-02-28T05:33:23;-1.40;51.60
21682;DHT22;11002;48.256;10.084;2023-02-28T05:35:50;-1.30;51.90
21682;DHT22;11002;48.256;10.084;2023-02-28T05:38:18;-1.30;52.00
21682;DHT22;11002;48.256;10.084;2023-02-28T05:40:45;-1.30;51.70
21682;DHT22;11002;48.256;10.084;2023-02-28T05:43:12;-1.20;52.00
21682;DHT22;11002;48.256;10.084;2023-02-28T05:45:40;-1.20;52.00
21682;DHT22;11002;48.256;10.084;2023-02-28T05:48:08;-1.50;51.60
21682;DHT22;11002;48.256;10.084;2023-02-28T05:50:36;-1.30;52.10
21682;DHT22;11002;48.256;10.084;2023-02-28T05:53:04;-1.40;51.70
21682;DHT22;11002;48.256;10.084;2023-02-28T05:55:31;-1.20;52.30
21682;DHT22;11002;48.256;10.084;2023-02-28T05:57:58;-1.10;52.40
21682;DHT22;11002;48.256;10.084;2023-02-28T06:00:26;-1.20;51.80
21682;DHT22;11002;48.256;10.084;2023-02-28T06:02:53;-1.20;51.90
21682;DHT22;11002;48.256;10.084;2023-02-28T06:05:24;-1.30;51.70
21682;DHT22;11002;48.256;10.084;2023-02-28T06:07:52;-1.40;51.90
21682;DHT22;11002;48.256;10.084;2023-02-28T06:10:20;-1.10;52.80
21682;DHT22;11002;48.256;10.084;2023-02-28T06:12:47;-1.10;52.50
21682;DHT22;11002;48.256;10.084;2023-02-28T06:15:15;-1.30;52.10
21682;DHT22;11002;48.256;10.084;2023-02-28T06:17:44;-1.20;51.90
21682;DHT22;11002;48.256;10.084;2023-02-28T06:20:12;-1.30;52.20
21682;DHT22;11002;48.256;10.084;2023-02-28T06:22:40;-1.30;51.80
21682;DHT22;11002;48.256;10.084;2023-02-28T06:25:09;-1.30;52.10
21682;DHT22;11002;48.256;10.084;2023-02-28T06:27:37;-1.30;52.00
21682;DHT22;11002;48.256;10.084;2023-02-28T06:30:05;-1.10;52.40
21682;DHT22;11002;48.256;10.084;2023-02-28T06:32:33;-1.20;52.40
21682;DHT22;11002;48.256;10.084;2023-02-28T06:35:02;-1.30;52.20
21682;DHT22;11002;48.256;10.084;2023-02-28T06:37:31;-1.10;52.30
21682;DHT22;11002;48.256;10.084;2023-02-28T06:39:59;-1.00;52.40
21682;DHT22;11002;48.256;10.084;2023-02-28T06:42:27;-1.10;52.20
21682;DHT22;11002;48.256;10.084;2023-02-28T06:44:56;-1.20;52.20
21682;DHT22;11002;48.256;10.084;2023-02-28T06:47:24;-1.10;52.30
21682;DHT22;11002;48.256;10.084;2023-02-28T06:49:51;-1.30;52.20
21682;DHT22;11002;48.256;10.084;2023-02-28T06:52:19;-1.30;51.90
21682;DHT22;11002;48.256;10.084;2023-02-28T06:54:47;-1.00;52.40
21682;DHT22;11002;48.256;10.084;2023-02-28T06:57:27;-1.30;52.00
21682;DHT22;11002;48.256;10.084;2023-02-28T06:59:57;-1.30;51.50
21682;DHT22;11002;48.256;10.084;2023-02-28T07:02:25;-1.10;52.00
21682;DHT22;11002;48.256;10.084;2023-02-28T07:04:53;-1.30;52.20
21682;DHT22;11002;48.256;10.084;2023-02-28T07:07:20;-1.10;52.00
21682;DHT22;11002;48.256;10.084;2023-02-28T07:09:48;-0.90;52.20
21682;DHT22;11002;48.256;10.084;2023-02-28T07:12:16;-1.10;51.90
21682;DHT22;11002;48.256;10.084;2023-02-28T07:14:45;-1.10;51.60
21682;DHT22;11002;48.256;10.084;2023-02-28T07:17:12;-1.20;51.40
21682;DHT22;11002;48.256;10.084;2023-02-28T07:19:40;-1.20;51.70
21682;DHT22;11002;48.256;10.084;2023-02-28T07:22:07;-1.30;51.90
21682;DHT22;11002;48.256;10.084;2023-02-28T07:24:34;-1.20;52.00
21682;DHT22;11002;48.256;10.084;2023-02-28T07:27:02;-1.10;52.10
21682;DHT22;11002;48.256;10.084;2023-02-28T07:29:29;-1.00;52.00
21682;DHT22;11002;48.256;10.084;2023-02-28T07:31:58;-1.20;52.10
21682;DHT22;11002;48.256;10.084;2023-02-28T07:34:26;-1.10;52.50
21682;DHT22;11002;48.256;10.084;2023-02-28T07:36:53;-1.20;51.90
21682;DHT22;11002;48.256;10.084;2023-02-28T07:39:21;-1.00;52.00
21682;DHT22;11002;48.256;10.084;2023-02-28T07:41:48;-1.10;51.60
21682;DHT22;11002;48.256;10.084;2023-02-28T07:44:16;-1.20;51.40
21682;DHT22;11002;48.256;10.084;2023-02-28T07:46:43;-1.20;51.80
21682;DHT22;11002;48.256;10.084;2023-02-28T07:49:12;-1.00;52.20
21682;DHT22;11002;48.256;10.084;2023-02-28T07:51:39;-1.30;51.90
21682;DHT22;11002;48.256;10.084;2023-02-28T07:54:07;-1.20;52.30
21682;DHT22;11002;48.256;10.084;2023-02-28T07:56:34;-1.10;51.60
21682;DHT22;11002;48.256;10.084;2023-02-28T07:59:02;-1.10;51.50
21682;DHT22;11002;48.256;10.084;2023-02-28T08:01:29;-0.90;52.40
21682;DHT22;11002;48.256;10.084;2023-02-28T08:03:57;-1.00;52.10
21682;DHT22;11002;48.256;10.084;2023-02-28T08:06:26;-1.20;51.40
21682;DHT22;11002;48.256;10.084;2023-02-28T08:08:53;-1.00;51.60
21682;DHT22;11002;48.256;10.084;2023-02-28T08:11:21;-1.20;51.40
21682;DHT22;11002;48.256;10.084;2023-02-28T08:13:49;-1.00;52.00
21682;DHT22;11002;48.256;10.084;2023-02-28T08:16:16;-1.00;51.70
21682;DHT22;11002;48.256;10.084;2023-02-28T08:18:48;-1.00;51.70
21682;DHT22;11002;48.256;10.084;2023-02-28T08:21:16;-1.10;51.60
21682;DHT22;11002;48.256;10.084;2023-02-28T08:23:46;-1.10;51.50
21682;DHT22;11002;48.256;10.084;2023-02-28T08:26:14;-1.00;51.80
21682;DHT22;11002;48.256;10.084;2023-02-28T08:28:41;-1.00;51.70
21682;DHT22;11002;48.256;10.084;2023-02-28T08:31:11;-1.00;51.70
21682;DHT22;11002;48.256;10.084;2023-02-28T08:33:39;-1.00;51.90
21682;DHT22;11002;48.256;10.084;2023-02-28T08:36:08;-1.10;51.80
21682;DHT22;11002;48.256;10.084;2023-02-28T08:38:36;-0.80;51.80
21682;DHT22;11002;48.256;10.084;2023-02-28T08:41:07;-0.80;51.70
21682;DHT22;11002;48.256;10.084;2023-02-28T08:43:36;-1.10;51.20
21682;DHT22;11002;48.256;10.084;2023-02-28T08:46:04;-1.00;51.30
21682;DHT22;11002;48.256;10.084;2023-02-28T08:48:32;-1.00;51.70
21682;DHT22;11002;48.256;10.084;2023-02-28T08:51:03;-0.90;51.40
21682;DHT22;11002;48.256;10.084;2023-02-28T08:53:31;-1.10;51.60
21682;DHT22;11002;48.256;10.084;2023-02-28T08:55:59;-0.80;51.40
21682;DHT22;11002;48.256;10.084;2023-02-28T08:58:28;-0.90;51.20
21682;DHT22;11002;48.256;10.084;2023-02-28T09:00:56;-0.90;51.10
21682;DHT22;11002;48.256;10.084;2023-02-28T09:03:24;-1.00;50.60
21682;DHT22;11002;48.256;10.084;2023-02-28T09:05:54;-0.70;51.00
21682;DHT22;11002;48.256;10.084;2023-02-28T09:08:22;-0.70;51.00
21682;DHT22;11002;48.256;10.084;2023-02-28T09:10:50;-0.60;51.10
21682;DHT22;11002;48.256;10.084;2023-02-28T09:13:18;-0.70;50.80
21682;DHT22;11002;48.256;10.084;2023-02-28T09:15:46;-0.50;51.30
21682;DHT22;11002;48.256;10.084;2023-02-28T09:18:14;-0.70;50.40
21682;DHT22;11002;48.256;10.084;2023-02-28T09:20:42;-0.70;50.30
21682;DHT22;11002;48.256;10.084;2023-02-28T09:23:11;-0.70;50.20
21682;DHT22;11002;48.256;10.084;2023-02-28T09:25:45;-0.50;50.10
21682;DHT22;11002;48.256;10.084;2023-02-28T09:28:13;-0.40;50.20
21682;DHT22;11002;48.256;10.084;2023-02-28T09:30:43;-0.60;49.40
21682;DHT22;11002;48.256;10.084;2023-02-28T09:33:13;-0.70;49.70
21682;DHT22;11002;48.256;10.084;2023-02-28T09:35:41;-0.60;50.20
21682;DHT22;11002;48.256;10.084;2023-02-28T09:38:09;-0.50;50.40
21682;DHT22;11002;48.256;10.084;2023-02-28T09:40:40;-0.60;50.20
21682;DHT22;11002;48.256;10.084;2023-02-28T09:43:14;-0.50;49.90
21682;DHT22;11002;48.256;10.084;2023-02-28T09:45:48;-0.50;50.00
21682;DHT22;11002;48.256;10.084;2023-02-28T09:48:23;-0.30;50.10
21682;DHT22;11002;48.256;10.084;2023-02-28T09:50:55;-0.50;49.70
21682;DHT22;11002;48.256;10.084;2023-02-28T09:53:29;-0.30;49.90
21682;DHT22;11002;48.256;10.084;2023-02-28T09:56:02;-0.50;49.30
21682;DHT22;11002;48.256;10.084;2023-02-28T09:58:36;-0.50;49.90
21682;DHT22;11002;48.256;10.084;2023-02-28T10:01:11;-0.50;49.60
21682;DHT22;11002;48.256;10.084;2023-02-28T10:03:43;-0.40;49.30
21682;DHT22;11002;48.256;10.084;2023-02-28T10:06:17;-0.40;49.00
21682;DHT22;11002;48.256;10.084;2023-02-28T10:08:52;-0.10;49.70
21682;DHT22;11002;48.256;10.084;2023-02-28T10:11:23;-0.30;48.70
21682;DHT22;11002;48.256;10.084;2023-02-28T10:13:53;-0.20;48.40
21682;DHT22;11002;48.256;10.084;2023-02-28T10:16:25;0.00;48.40
21682;DHT22;11002;48.256;10.084;2023-02-28T10:18:58;-0.10;48.80
21682;DHT22;11002;48.256;10.084;2023-02-28T10:21:30;-0.10;48.70
21682;DHT22;11002;48.256;10.084;2023-02-28T10:24:03;-0.10;47.90
21682;DHT22;11002;48.256;10.084;2023-02-28T10:26:32;-0.30;48.40
21682;DHT22;11002;48.256;10.084;2023-02-28T10:29:00;-0.10;49.20
21682;DHT22;11002;48.256;10.084;2023-02-28T10:31:28;0.10;48.10
21682;DHT22;11002;48.256;10.084;2023-02-28T10:33:57;0.00;48.50
21682;DHT22;11002;48.256;10.084;2023-02-28T10:36:25;0.00;48.10
21682;DHT22;11002;48.256;10.084;2023-02-28T10:38:52;0.00;48.40
21682;DHT22;11002;48.256;10.084;2023-02-28T10:41:28;0.10;48.40
21682;DHT22;11002;48.256;10.084;2023-02-28T10:44:17;0.00;47.30
21682;DHT22;11002;48.256;10.084;2023-02-28T10:46:46;0.20;48.20
21682;DHT22;11002;48.256;10.084;2023-02-28T10:49:20;0.40;47.80
21682;DHT22;11002;48.256;10.084;2023-02-28T10:51:50;0.30;47.70
21682;DHT22;11002;48.256;10.084;2023-02-28T10:54:22;0.40;47.30
21682;DHT22;11002;48.256;10.084;2023-02-28T10:57:05;0.70;46.30
21682;DHT22;11002;48.256;10.084;2023-02-28T10:59:33;0.70;45.70
21682;DHT22;11002;48.256;10.084;2023-02-28T11:02:00;0.70;45.90
21682;DHT22;11002;48.256;10.084;2023-02-28T11:04:36;0.80;46.10
21682;DHT22;11002;48.256;10.084;2023-02-28T11:07:17;0.70;45.30
21682;DHT22;11002;48.256;10.084;2023-02-28T11:09:47;0.80;45.40
21682;DHT22;11002;48.256;10.084;2023-02-28T11:12:23;1.00;43.80
21682;DHT22;11002;48.256;10.084;2023-02-28T11:14:54;1.00;43.80
21682;DHT22;11002;48.256;10.084;2023-02-28T11:17:24;0.60;44.10
21682;DHT22;11002;48.256;10.084;2023-02-28T11:19:56;0.60;43.50
21682;DHT22;11002;48.256;10.084;2023-02-28T11:22:26;1.00;44.40
21682;DHT22;11002;48.256;10.084;2023-02-28T11:24:57;1.40;43.40
21682;DHT22;11002;48.256;10.084;2023-02-28T11:27:43;1.50;42.80
21682;DHT22;11002;48.256;10.084;2023-02-28T11:30:27;2.10;41.20
21682;DHT22;11002;48.256;10.084;2023-02-28T11:32:55;2.30;39.30
21682;DHT22;11002;48.256;10.084;2023-02-28T11:35:27;2.30;39.50
21682;DHT22;11002;48.256;10.084;2023-02-28T11:37:55;2.60;39.10
21682;DHT22;11002;48.256;10.084;2023-02-28T11:40:30;2.40;37.60
21682;DHT22;11002;48.256;10.084;2023-02-28T11:43:08;2.20;38.70
21682;DHT22;11002;48.256;10.084;2023-02-28T11:45:49;2.30;39.20
21682;DHT22;11002;48.256;10.084;2023-02-28T11:48:22;2.60;38.70
21682;DHT22;11002;48.256;10.084;2023-02-28T11:51:08;2.60;39.50
21682;DHT22;11002;48.256;10.084;2023-02-28T11:56:48;2.90;37.60
21682;DHT22;11002;48.256;10.084;2023-02-28T11:59:37;3.10;37.40
21682;DHT22;11002;48.256;10.084;2023-02-28T12:02:26;3.20;36.60
21682;DHT22;11002;48.256;10.084;2023-02-28T12:05:12;3.60;35.30
21682;DHT22;11002;48.256;10.084;2023-02-28T12:07:50;3.70;35.40
21682;DHT22;11002;48.256;10.084;2023-02-28T12:10:25;4.00;35.70
21682;DHT22;11002;48.256;10.084;2023-02-28T12:13:02;4.00;35.70
21682;DHT22;11002;48.256;10.084;2023-02-28T12:15:49;4.00;35.10
21682;DHT22;11002;48.256;10.084;2023-02-28T12:18:27;3.80;35.10
21682;DHT22;11002;48.256;10.084;2023-02-28T12:21:01;3.70;34.30
21682;DHT22;11002;48.256;10.084;2023-02-28T12:23:49;3.80;34.30
21682;DHT22;11002;48.256;10.084;2023-02-28T12:26:25;3.70;35.40
21682;DHT22;11002;48.256;10.084;2023-02-28T12:29:03;3.90;35.50
21682;DHT22;11002;48.256;10.084;2023-02-28T12:31:36;4.10;34.10
21682;DHT22;11002;48.256;10.084;2023-02-28T12:34:06;4.60;33.90
21682;DHT22;11002;48.256;10.084;2023-02-28T12:36:37;4.50;31.70
21682;DHT22;11002;48.256;10.084;2023-02-28T12:39:11;4.20;32.30
21682;DHT22;11002;48.256;10.084;2023-02-28T12:41:43;3.70;34.80
21682;DHT22;11002;48.256;10.084;2023-02-28T12:44:15;3.50;34.50
21682;DHT22;11002;48.256;10.084;2023-02-28T12:46:47;3.60;35.30
21682;DHT22;11002;48.256;10.084;2023-02-28T12:49:19;3.50;33.90
21682;DHT22;11002;48.256;10.084;2023-02-28T12:51:49;3.40;35.10
21682;DHT22;11002;48.256;10.084;2023-02-28T12:54:24;3.60;35.30
21682;DHT22;11002;48.256;10.084;2023-02-28T12:56:58;3.80;33.80
21682;DHT22;11002;48.256;10.084;2023-02-28T12:59:30;3.90;35.00
21682;DHT22;11002;48.256;10.084;2023-02-28T13:02:32;4.10;34.30
21682;DHT22;11002;48.256;10.084;2023-02-28T13:05:14;4.70;34.80
21682;DHT22;11002;48.256;10.084;2023-02-28T13:08:07;4.80;32.20
21682;DHT22;11002;48.256;10.084;2023-02-28T13:10:42;4.50;31.70
21682;DHT22;11002;48.256;10.084;2023-02-28T13:13:16;4.40;32.70
21682;DHT22;11002;48.256;10.084;2023-02-28T13:16:01;4.50;32.80
21682;DHT22;11002;48.256;10.084;2023-02-28T13:18:31;4.60;31.80
21682;DHT22;11002;48.256;10.084;2023-02-28T13:21:00;4.70;33.80
21682;DHT22;11002;48.256;10.084;2023-02-28T13:23:41;4.90;32.30
21682;DHT22;11002;48.256;10.084;2023-02-28T13:29:32;4.90;31.60
21682;DHT22;11002;48.256;10.084;2023-02-28T13:32:32;4.60;32.60
21682;DHT22;11002;48.256;10.084;2023-02-28T13:35:36;4.80;31.80
21682;DHT22;11002;48.256;10.084;2023-02-28T13:41:47;4.80;31.40
21682;DHT22;11002;48.256;10.084;2023-02-28T13:44:17;4.40;31.50
21682;DHT22;11002;48.256;10.084;2023-02-28T13:47:22;4.10;33.10
21682;DHT22;11002;48.256;10.084;2023-02-28T13:49:52;3.90;33.70
21682;DHT22;11002;48.256;10.084;2023-02-28T13:52:22;3.70;34.10
21682;DHT22;11002;48.256;10.084;2023-02-28T13:55:12;3.90;35.50
21682;DHT22;11002;48.256;10.084;2023-02-28T13:57:53;4.00;34.40
21682;DHT22;11002;48.256;10.084;2023-02-28T14:00:35;4.00;35.10
21682;DHT22;11002;48.256;10.084;2023-02-28T14:03:24;4.00;35.00
21682;DHT22;11002;48.256;10.084;2023-02-28T14:06:26;4.30;33.80
21682;DHT22;11002;48.256;10.084;2023-02-28T14:08:58;4.50;31.60
21682;DHT22;11002;48.256;10.084;2023-02-28T14:11:30;4.50;32.90
21682;DHT22;11002;48.256;10.084;2023-02-28T14:14:00;4.20;32.10
21682;DHT22;11002;48.256;10.084;2023-02-28T14:16:36;4.20;33.40
21682;DHT22;11002;48.256;10.084;2023-02-28T14:19:11;4.10;32.60
21682;DHT22;11002;48.256;10.084;2023-02-28T14:21:43;4.20;33.30
21682;DHT22;11002;48.256;10.084;2023-02-28T14:24:42;4.40;33.00
21682;DHT22;11002;48.256;10.084;2023-02-28T14:27:24;4.50;33.20
21682;DHT22;11002;48.256;10.084;2023-02-28T14:33:14;4.40;32.50
21682;DHT22;11002;48.256;10.084;2023-02-28T14:36:10;4.30;32.50
21682;DHT22;11002;48.256;10.084;2023-02-28T14:38:43;4.50;32.80
21682;DHT22;11002;48.256;10.084;2023-02-28T14:41:21;4.50;33.60
21682;DHT22;11002;48.256;10.084;2023-02-28T14:43:55;4.50;33.50
21682;DHT22;11002;48.256;10.084;2023-02-28T14:46:26;4.40;33.80
21682;DHT22;11002;48.256;10.084;2023-02-28T14:48:56;4.20;34.10
21682;DHT22;11002;48.256;10.084;2023-02-28T14:51:24;4.10;33.80
21682;DHT22;11002;48.256;10.084;2023-02-28T14:53:56;4.30;34.60
21682;DHT22;11002;48.256;10.084;2023-02-28T14:56:27;4.40;35.90
21682;DHT22;11002;48.256;10.084;2023-02-28T14:58:57;4.40;35.00
21682;DHT22;11002;48.256;10.084;2023-02-28T15:01:25;4.20;34.10
21682;DHT22;11002;48.256;10.084;2023-02-28T15:04:03;4.30;33.90
21682;DHT22;11002;48.256;10.084;2023-02-28T15:06:32;4.40;35.80
21682;DHT22;11002;48.256;10.084;2023-02-28T15:09:08;4.30;34.90
21682;DHT22;11002;48.256;10.084;2023-02-28T15:11:37;4.30;33.90
21682;DHT22;11002;48.256;10.084;2023-02-28T15:14:05;4.20;33.90
21682;DHT22;11002;48.256;10.084;2023-02-28T15:16:36;4.20;33.70
21682;DHT22;11002;48.256;10.084;2023-02-28T15:19:11;4.40;34.80
21682;DHT22;11002;48.256;10.084;2023-02-28T15:21:44;4.10;34.40
21682;DHT22;11002;48.256;10.084;2023-02-28T15:24:16;4.10;34.10
21682;DHT22;11002;48.256;10.084;2023-02-28T15:26:53;4.00;35.60
21682;DHT22;11002;48.256;10.084;2023-02-28T15:29:22;3.90;34.70
21682;DHT22;11002;48.256;10.084;2023-02-28T15:31:55;4.00;36.40
21682;DHT22;11002;48.256;10.084;2023-02-28T15:34:29;4.10;35.20
21682;DHT22;11002;48.256;10.084;2023-02-28T15:37:00;3.80;35.20
21682;DHT22;11002;48.256;10.084;2023-02-28T15:39:28;3.90;35.60
21682;DHT22;11002;48.256;10.084;2023-02-28T15:42:10;3.90;35.50
21682;DHT22;11002;48.256;10.084;2023-02-28T15:44:38;3.70;35.40
21682;DHT22;11002;48.256;10.084;2023-02-28T15:47:07;3.60;35.30
21682;DHT22;11002;48.256;10.084;2023-02-28T15:49:47;3.60;35.30
21682;DHT22;11002;48.256;10.084;2023-02-28T15:52:18;3.60;35.30
21682;DHT22;11002;48.256;10.084;2023-02-28T15:54:47;3.60;35.30
21682;DHT22;11002;48.256;10.084;2023-02-28T15:57:18;3.70;35.40
21682;DHT22;11002;48.256;10.084;2023-02-28T15:59:51;3.80;35.50
21682;DHT22;11002;48.256;10.084;2023-02-28T16:02:21;3.60;35.30
21682;DHT22;11002;48.256;10.084;2023-02-28T16:04:58;3.70;35.40
21682;DHT22;11002;48.256;10.084;2023-02-28T16:07:27;3.60;35.40
21682;DHT22;11002;48.256;10.084;2023-02-28T16:09:55;3.50;35.30
21682;DHT22;11002;48.256;10.084;2023-02-28T16:12:26;3.50;35.30
21682;DHT22;11002;48.256;10.084;2023-02-28T16:14:54;3.40;35.10